createdAt,value
2023-01-09T00:00:51.688Z,41.50
2023-01-09T00:03:21.472Z,61.57
2023-01-09T00:05:55.107Z,80.53
2023-01-09T00:08:24.482Z,91.57
2023-01-09T00:10:53.855Z,44.70
2023-01-09T00:13:23.775Z,55.20
2023-01-09T00:15:53.319Z,71.50
2023-01-09T00:18:22.651Z,41.87
2023-01-09T00:20:53.435Z,38.27
2023-01-09T00:23:22.663Z,48.13
2023-01-09T00:25:52.024Z,37.83
2023-01-09T00:28:21.376Z,42.20
2023-01-09T00:30:58.147Z,39.57
2023-01-09T00:33:31.632Z,40.53
2023-01-09T00:36:02.801Z,40.63
2023-01-09T00:38:31.884Z,37.27
2023-01-09T00:41:03.509Z,40.80
2023-01-09T00:43:47.179Z,41.80
2023-01-09T00:46:18.288Z,37.43
2023-01-09T00:48:51.014Z,38.67
2023-01-09T00:51:23.170Z,35.83
2023-01-09T00:53:53.710Z,36.30
2023-01-09T00:56:24.386Z,34.67
2023-01-09T00:58:54.808Z,34.20
2023-01-09T01:01:27.445Z,36.93
2023-01-09T01:03:56.995Z,36.00
2023-01-09T01:06:47.712Z,33.43
2023-01-09T01:09:19.870Z,35.40
2023-01-09T01:11:53.929Z,34.20
2023-01-09T01:14:23.956Z,39.23
2023-01-09T01:16:56.134Z,33.30
2023-01-09T01:19:25.494Z,34.90
2023-01-09T01:21:56.798Z,36.30
2023-01-09T01:24:26.282Z,32.77
2023-01-09T01:26:55.382Z,36.33
2023-01-09T01:29:24.556Z,32.97
2023-01-09T01:31:56.875Z,33.97
2023-01-09T01:34:26.259Z,29.60
2023-01-09T01:36:56.804Z,31.00
2023-01-09T01:39:26.175Z,31.67
2023-01-09T01:41:55.306Z,33.97
2023-01-09T01:45:06.419Z,35.67
2023-01-09T01:47:58.364Z,37.67
2023-01-09T01:50:34.240Z,35.03
2023-01-09T01:53:13.965Z,31.77
2023-01-09T01:55:50.037Z,34.70
2023-01-09T01:58:19.591Z,32.27
2023-01-09T02:00:50.496Z,30.27
2023-01-09T02:03:23.071Z,32.37
2023-01-09T02:05:52.137Z,32.47
2023-01-09T02:08:23.907Z,33.80
2023-01-09T02:10:55.200Z,35.47
2023-01-09T02:13:25.078Z,33.10
2023-01-09T02:16:16.070Z,33.27
2023-01-09T02:19:00.204Z,35.23
2023-01-09T02:21:46.315Z,32.37
2023-01-09T02:24:56.729Z,31.57
2023-01-09T02:28:11.150Z,35.30
2023-01-09T02:30:51.032Z,33.37
2023-01-09T02:33:40.416Z,34.27
2023-01-09T02:36:23.840Z,32.90
2023-01-09T02:39:15.727Z,56.63
2023-01-09T02:41:54.913Z,48.70
2023-01-09T02:44:26.191Z,40.63
2023-01-09T02:47:10.185Z,43.07
2023-01-09T02:49:41.644Z,41.00
2023-01-09T02:52:36.032Z,42.77
2023-01-09T02:55:22.815Z,43.00
2023-01-09T02:58:06.439Z,42.13
2023-01-09T03:00:47.687Z,50.50
2023-01-09T03:03:27.632Z,44.37
2023-01-09T03:06:08.443Z,46.23
2023-01-09T03:08:43.771Z,44.77
2023-01-09T03:11:13.320Z,29.93
2023-01-09T03:13:49.658Z,33.53
2023-01-09T03:16:26.291Z,35.27
2023-01-09T03:19:00.659Z,37.97
2023-01-09T03:21:31.643Z,37.17
2023-01-09T03:24:03.385Z,36.33
2023-01-09T03:26:32.510Z,38.13
2023-01-09T03:29:01.886Z,33.33
2023-01-09T03:31:30.921Z,34.27
2023-01-09T03:34:01.385Z,34.30
2023-01-09T03:36:30.546Z,32.60
2023-01-09T03:38:59.584Z,28.20
2023-01-09T03:41:28.494Z,28.13
2023-01-09T03:43:57.356Z,29.80
2023-01-09T03:46:26.251Z,31.07
2023-01-09T03:48:55.262Z,28.33
2023-01-09T03:51:25.738Z,26.03
2023-01-09T03:53:54.922Z,28.57
2023-01-09T03:56:25.708Z,25.37
2023-01-09T03:58:54.815Z,25.43
2023-01-09T04:01:23.876Z,26.50
2023-01-09T04:03:52.950Z,23.02
2023-01-09T04:06:21.868Z,24.13
2023-01-09T04:08:52.283Z,25.30
2023-01-09T04:11:22.666Z,24.17
2023-01-09T04:13:51.838Z,25.23
2023-01-09T04:16:20.864Z,27.13
2023-01-09T04:18:49.980Z,21.77
2023-01-09T04:21:18.989Z,22.35
2023-01-09T04:23:48.307Z,23.63
2023-01-09T04:26:18.653Z,24.05
2023-01-09T04:28:47.659Z,24.33
2023-01-09T04:31:16.820Z,20.55
2023-01-09T04:33:45.767Z,21.98
2023-01-09T04:36:14.947Z,22.95
2023-01-09T04:38:43.962Z,21.25
2023-01-09T04:41:33.239Z,23.98
2023-01-09T04:44:03.678Z,23.65
2023-01-09T04:46:32.583Z,23.83
2023-01-09T04:49:01.570Z,25.00
2023-01-09T04:51:30.555Z,21.40
2023-01-09T04:53:59.539Z,26.83
2023-01-09T04:56:28.848Z,25.42
2023-01-09T04:58:57.820Z,28.15
2023-01-09T05:01:28.417Z,20.57
2023-01-09T05:03:57.411Z,19.57
2023-01-09T05:06:26.608Z,20.60
2023-01-09T05:08:56.737Z,23.15
2023-01-09T05:11:26.656Z,19.70
2023-01-09T05:13:55.952Z,20.10
2023-01-09T05:16:25.006Z,20.98
2023-01-09T05:18:57.288Z,22.33
2023-01-09T05:21:26.464Z,21.93
2023-01-09T05:23:55.833Z,20.37
2023-01-09T05:26:25.639Z,22.37
2023-01-09T05:28:56.378Z,19.20
2023-01-09T05:31:27.856Z,22.38
2023-01-09T05:33:59.384Z,22.97
2023-01-09T05:36:28.392Z,20.83
2023-01-09T05:38:58.029Z,19.70
2023-01-09T05:41:27.386Z,21.63
2023-01-09T05:43:56.375Z,22.02
2023-01-09T05:46:25.585Z,20.85
2023-01-09T05:48:54.539Z,19.23
2023-01-09T05:51:25.284Z,20.63
2023-01-09T05:53:54.309Z,22.33
2023-01-09T05:56:23.184Z,24.23
2023-01-09T05:58:52.257Z,21.42
2023-01-09T06:01:23.581Z,20.73
2023-01-09T06:03:52.780Z,16.25
2023-01-09T06:06:22.918Z,15.05
2023-01-09T06:08:53.331Z,17.23
2023-01-09T06:11:22.338Z,15.90
2023-01-09T06:13:51.308Z,15.68
2023-01-09T06:16:20.282Z,13.98
2023-01-09T06:18:49.260Z,15.18
2023-01-09T06:21:18.222Z,13.77
2023-01-09T06:23:47.442Z,13.82
2023-01-09T06:26:17.711Z,15.32
2023-01-09T06:28:46.525Z,13.82
2023-01-09T06:31:15.382Z,15.90
2023-01-09T06:33:44.257Z,14.75
2023-01-09T06:36:13.138Z,13.85
2023-01-09T06:38:42.285Z,13.13
2023-01-09T06:41:11.314Z,11.93
2023-01-09T06:43:41.851Z,12.88
2023-01-09T06:46:10.966Z,11.32
2023-01-09T06:48:40.128Z,9.85
2023-01-09T06:51:09.044Z,10.20
2023-01-09T06:53:39.197Z,10.18
2023-01-09T06:56:08.565Z,9.13
2023-01-09T06:58:37.739Z,7.45
2023-01-09T07:01:08.992Z,6.95
2023-01-09T07:03:37.897Z,6.10
2023-01-09T07:06:07.987Z,7.20
2023-01-09T07:08:36.818Z,7.72
2023-01-09T07:11:06.077Z,13.85
2023-01-09T07:13:35.014Z,11.90
2023-01-09T07:16:05.635Z,22.20
2023-01-09T07:18:37.179Z,6.13
2023-01-09T07:21:08.305Z,7.03
2023-01-09T07:23:37.589Z,6.70
2023-01-09T07:26:06.876Z,5.40
2023-01-09T07:28:35.945Z,6.82
2023-01-09T07:31:07.585Z,9.32
2023-01-09T07:33:38.059Z,5.82
2023-01-09T07:36:07.871Z,5.70
2023-01-09T07:38:37.599Z,5.40
2023-01-09T07:41:07.053Z,5.57
2023-01-09T07:43:36.054Z,6.10
2023-01-09T07:46:05.412Z,6.75
2023-01-09T07:48:34.578Z,8.00
2023-01-09T07:51:06.327Z,6.90
2023-01-09T07:53:35.213Z,5.45
2023-01-09T07:56:04.226Z,5.75
2023-01-09T07:58:33.183Z,5.97
2023-01-09T08:01:02.204Z,5.88
2023-01-09T08:03:31.133Z,6.00
2023-01-09T08:06:00.132Z,5.97
2023-01-09T08:08:30.386Z,6.35
2023-01-09T08:10:59.249Z,6.50
2023-01-09T08:13:28.331Z,22.25
2023-01-09T08:15:57.350Z,11.60
2023-01-09T08:18:26.223Z,13.60
2023-01-09T08:20:55.411Z,13.27
2023-01-09T08:23:24.259Z,9.20
2023-01-09T08:25:55.253Z,8.55
2023-01-09T08:28:24.140Z,7.35
2023-01-09T08:30:53.138Z,6.75
2023-01-09T08:33:22.112Z,6.75
2023-01-09T08:35:51.185Z,6.15
2023-01-09T08:38:22.138Z,5.88
2023-01-09T08:40:51.207Z,7.18
2023-01-09T08:43:38.768Z,6.18
2023-01-09T08:46:36.169Z,5.53
2023-01-09T08:49:05.148Z,6.20
2023-01-09T08:51:33.983Z,5.55
2023-01-09T08:54:02.980Z,6.05
2023-01-09T08:56:31.794Z,5.70
2023-01-09T08:59:02.088Z,5.35
2023-01-09T09:01:31.057Z,5.55
2023-01-09T09:04:00.090Z,6.18
2023-01-09T09:06:29.028Z,6.15
2023-01-09T09:08:58.057Z,8.82
2023-01-09T09:11:26.914Z,5.75
2023-01-09T09:13:55.943Z,5.32
2023-01-09T09:16:26.797Z,15.50
2023-01-09T09:18:55.949Z,12.55
2023-01-09T09:21:24.797Z,11.10
2023-01-09T09:23:53.612Z,13.85
2023-01-09T09:26:22.607Z,8.82
2023-01-09T09:28:51.532Z,9.45
2023-01-09T09:31:20.472Z,6.80
2023-01-09T09:33:50.838Z,6.85
2023-01-09T09:36:19.882Z,9.30
2023-01-09T09:38:48.852Z,6.20
2023-01-09T09:41:55.919Z,6.15
2023-01-09T09:44:54.388Z,7.00
2023-01-09T09:47:45.903Z,5.90
2023-01-09T09:51:02.056Z,6.13
2023-01-09T09:53:38.600Z,6.68
2023-01-09T09:56:12.319Z,6.07
2023-01-09T09:58:46.932Z,6.20
2023-01-09T10:01:23.183Z,4.90
2023-01-09T10:03:56.767Z,8.73
2023-01-09T10:06:31.876Z,8.77
2023-01-09T10:09:10.801Z,5.97
2023-01-09T10:11:48.689Z,5.97
2023-01-09T10:14:24.385Z,4.90
2023-01-09T10:17:26.175Z,5.85
2023-01-09T10:20:24.449Z,5.32
2023-01-09T10:23:09.884Z,5.65
2023-01-09T10:25:50.083Z,6.45
2023-01-09T10:28:51.533Z,5.25
2023-01-09T10:31:33.568Z,5.75
2023-01-09T10:34:21.130Z,5.68
2023-01-09T10:37:10.065Z,5.78
2023-01-09T10:39:47.628Z,5.55
2023-01-09T10:42:30.831Z,6.03
2023-01-09T10:45:06.916Z,5.82
2023-01-09T10:47:40.854Z,6.10
2023-01-09T10:50:22.391Z,5.80
2023-01-09T10:52:54.620Z,5.82
2023-01-09T10:55:39.236Z,5.65
2023-01-09T10:58:14.569Z,5.88
2023-01-09T11:00:44.611Z,5.80
2023-01-09T11:03:14.800Z,5.72
2023-01-09T11:05:52.444Z,5.70
2023-01-09T11:08:31.068Z,6.65
2023-01-09T11:11:03.452Z,6.38
2023-01-09T11:13:35.208Z,6.97
2023-01-09T11:16:09.937Z,7.85
2023-01-09T11:18:42.759Z,6.78
2023-01-09T11:21:29.655Z,9.18
2023-01-09T11:24:29.626Z,12.93
2023-01-09T11:27:33.218Z,8.57
2023-01-09T11:30:36.335Z,8.45
2023-01-09T11:33:17.350Z,8.88
2023-01-09T11:36:02.330Z,7.53
2023-01-09T11:38:33.427Z,8.18
2023-01-09T11:41:06.731Z,7.53
2023-01-09T11:43:40.379Z,7.95
2023-01-09T11:46:12.638Z,7.95
2023-01-09T11:48:57.104Z,7.40
2023-01-09T11:51:28.173Z,7.90
2023-01-09T11:54:17.401Z,6.70
2023-01-09T11:56:48.609Z,7.53
2023-01-09T11:59:21.424Z,6.75
2023-01-09T12:02:53.442Z,6.70
2023-01-09T12:05:43.195Z,6.53
2023-01-09T12:08:37.492Z,5.60
2023-01-09T12:11:30.150Z,5.85
2023-01-09T12:14:36.500Z,4.90
2023-01-09T12:17:41.068Z,4.60
2023-01-09T12:20:29.132Z,4.32
2023-01-09T12:23:18.831Z,3.58
2023-01-09T12:25:59.385Z,3.80
2023-01-09T12:28:53.067Z,3.78
2023-01-09T12:31:39.712Z,5.60
2023-01-09T12:34:37.351Z,4.35
2023-01-09T12:37:42.263Z,3.10
2023-01-09T12:40:31.344Z,2.67
2023-01-09T12:43:12.319Z,3.08
2023-01-09T12:46:01.291Z,3.30
2023-01-09T12:48:53.927Z,3.78
2023-01-09T12:51:32.935Z,3.42
2023-01-09T12:54:09.783Z,3.28
2023-01-09T12:56:43.886Z,2.97
2023-01-09T12:59:30.929Z,3.88
2023-01-09T13:02:20.596Z,2.50
2023-01-09T13:04:58.259Z,2.53
2023-01-09T13:07:35.219Z,2.25
2023-01-09T13:10:17.853Z,2.63
2023-01-09T13:12:50.625Z,3.53
2023-01-09T13:15:33.357Z,4.05
2023-01-09T13:18:12.795Z,3.90
2023-01-09T13:20:47.910Z,5.65
2023-01-09T13:23:28.479Z,3.42
2023-01-09T13:25:59.841Z,2.03
2023-01-09T13:28:36.193Z,3.10
2023-01-09T13:31:48.993Z,3.92
2023-01-09T13:34:23.231Z,3.08
2023-01-09T13:36:57.634Z,2.55
2023-01-09T13:39:29.731Z,4.50
2023-01-09T13:42:19.613Z,2.65
2023-01-09T13:44:51.030Z,2.70
2023-01-09T13:47:24.976Z,2.95
2023-01-09T13:50:18.543Z,7.40
2023-01-09T13:52:49.304Z,4.70
2023-01-09T13:55:37.216Z,3.17
2023-01-09T13:58:26.914Z,2.80
2023-01-09T14:01:00.296Z,2.60
2023-01-09T14:03:34.001Z,2.50
2023-01-09T14:06:21.690Z,3.53
2023-01-09T14:09:18.260Z,5.75
2023-01-09T14:11:49.493Z,3.17
2023-01-09T14:14:34.392Z,2.90
2023-01-09T14:17:04.485Z,2.65
2023-01-09T14:19:40.502Z,4.72
2023-01-09T14:22:26.956Z,2.38
2023-01-09T14:25:03.660Z,2.33
2023-01-09T14:28:22.510Z,2.30
2023-01-09T14:31:12.323Z,2.58
2023-01-09T14:33:41.183Z,2.47
2023-01-09T14:36:22.146Z,4.22
2023-01-09T14:38:54.659Z,2.70
2023-01-09T14:41:50.547Z,2.67
2023-01-09T14:44:30.287Z,21.20
2023-01-09T14:47:07.952Z,2.78
2023-01-09T14:49:43.520Z,2.83
2023-01-09T14:52:23.392Z,2.50
2023-01-09T14:54:58.868Z,3.10
2023-01-09T14:57:32.214Z,2.65
2023-01-09T15:00:03.585Z,2.60
2023-01-09T15:02:37.892Z,2.47
2023-01-09T15:05:12.043Z,2.47
2023-01-09T15:07:51.225Z,2.72
2023-01-09T15:10:24.573Z,2.55
2023-01-09T15:12:58.150Z,4.95
2023-01-09T15:15:28.879Z,11.68
2023-01-09T15:18:02.674Z,3.65
2023-01-09T15:20:34.390Z,3.97
2023-01-09T15:23:05.559Z,4.15
2023-01-09T15:25:39.894Z,3.15
2023-01-09T15:28:41.159Z,4.05
2023-01-09T15:31:17.226Z,2.58
2023-01-09T15:33:49.314Z,2.90
2023-01-09T15:36:23.379Z,20.45
2023-01-09T15:38:53.984Z,4.13
2023-01-09T15:41:46.376Z,3.17
2023-01-09T15:44:24.185Z,2.78
2023-01-09T15:46:53.778Z,3.80
2023-01-09T15:49:22.801Z,9.15
2023-01-09T15:51:53.051Z,7.00
2023-01-09T15:54:30.375Z,2.72
2023-01-09T15:57:33.335Z,3.47
2023-01-09T16:00:42.000Z,2.88
2023-01-09T16:03:22.152Z,2.85
2023-01-09T16:06:05.549Z,2.85
2023-01-09T16:08:39.117Z,2.90
2023-01-09T16:11:11.139Z,4.55
2023-01-09T16:13:45.569Z,7.13
2023-01-09T16:16:29.649Z,3.97
2023-01-09T16:19:02.483Z,3.15
2023-01-09T16:21:39.093Z,2.60
2023-01-09T16:24:27.277Z,3.22
2023-01-09T16:27:22.389Z,3.38
2023-01-09T16:29:57.583Z,3.17
2023-01-09T16:32:31.722Z,3.85
2023-01-09T16:35:06.108Z,3.30
2023-01-09T16:37:37.473Z,2.72
2023-01-09T16:40:27.280Z,2.90
2023-01-09T16:43:08.634Z,3.03
2023-01-09T16:45:40.482Z,3.15
2023-01-09T16:48:17.158Z,2.50
2023-01-09T16:50:46.953Z,2.67
2023-01-09T16:53:18.583Z,2.55
2023-01-09T16:55:48.372Z,2.53
2023-01-09T16:58:22.747Z,11.88
2023-01-09T17:00:51.710Z,9.73
2023-01-09T17:03:22.412Z,6.93
2023-01-09T17:05:55.279Z,3.08
2023-01-09T17:08:27.620Z,3.10
2023-01-09T17:10:58.396Z,3.13
2023-01-09T17:13:28.254Z,2.83
2023-01-09T17:15:59.860Z,2.88
2023-01-09T17:18:30.215Z,2.97
2023-01-09T17:20:59.932Z,2.97
2023-01-09T17:23:28.989Z,3.05
2023-01-09T17:26:20.634Z,2.53
2023-01-09T17:28:52.882Z,3.50
2023-01-09T17:31:24.460Z,2.58
2023-01-09T17:33:55.076Z,3.70
2023-01-09T17:36:32.145Z,2.08
2023-01-09T17:39:02.463Z,1.85
2023-01-09T17:41:33.752Z,2.28
2023-01-09T17:44:02.651Z,2.42
2023-01-09T17:46:34.143Z,2.85
2023-01-09T17:49:06.956Z,2.47
2023-01-09T17:51:35.900Z,2.25
2023-01-09T17:54:04.863Z,2.50
2023-01-09T17:56:38.658Z,2.58
2023-01-09T17:59:08.079Z,4.35
2023-01-09T18:01:37.121Z,2.40
2023-01-09T18:04:07.651Z,2.20
2023-01-09T18:06:37.874Z,2.30
2023-01-09T18:09:07.486Z,3.08
2023-01-09T18:11:36.739Z,2.35
2023-01-09T18:14:05.838Z,2.70
2023-01-09T18:16:36.294Z,2.58
2023-01-09T18:19:07.163Z,2.40
2023-01-09T18:21:36.062Z,2.38
2023-01-09T18:24:05.640Z,2.35
2023-01-09T18:26:34.671Z,1.85
2023-01-09T18:29:03.813Z,3.22
2023-01-09T18:31:33.596Z,1.80
2023-01-09T18:34:05.556Z,2.72
2023-01-09T18:36:36.108Z,2.63
2023-01-09T18:39:07.303Z,4.68
2023-01-09T18:41:36.408Z,2.53
2023-01-09T18:44:05.494Z,2.28
2023-01-09T18:46:34.582Z,3.38
2023-01-09T18:49:05.830Z,6.00
2023-01-09T18:51:37.543Z,2.33
2023-01-09T18:54:08.351Z,2.78
2023-01-09T18:56:37.558Z,4.85
2023-01-09T18:59:07.199Z,2.05
2023-01-09T19:01:36.388Z,2.00
2023-01-09T19:04:07.666Z,2.00
2023-01-09T19:06:38.008Z,1.98
2023-01-09T19:09:07.253Z,1.80
2023-01-09T19:11:36.358Z,1.70
2023-01-09T19:14:10.038Z,2.13
2023-01-09T19:16:39.317Z,2.30
2023-01-09T19:19:08.856Z,2.15
2023-01-09T19:21:39.512Z,2.33
2023-01-09T19:24:09.103Z,2.67
2023-01-09T19:26:37.995Z,2.08
2023-01-09T19:29:07.004Z,2.97
2023-01-09T19:31:36.738Z,2.05
2023-01-09T19:34:09.118Z,1.90
2023-01-09T19:36:39.621Z,2.00
2023-01-09T19:39:08.755Z,3.38
2023-01-09T19:41:37.881Z,2.30
2023-01-09T19:44:07.404Z,3.30
2023-01-09T19:46:36.680Z,2.45
2023-01-09T19:49:06.277Z,1.90
2023-01-09T19:51:35.807Z,5.60
2023-01-09T19:56:38.170Z,3.67
2023-01-09T19:59:08.312Z,3.00
2023-01-09T20:01:41.893Z,2.70
2023-01-09T20:04:15.164Z,2.55
2023-01-09T20:06:46.889Z,6.65
2023-01-09T20:09:22.219Z,7.63
2023-01-09T20:11:51.388Z,3.63
2023-01-09T20:14:24.227Z,4.82
2023-01-09T20:16:54.341Z,3.67
2023-01-09T20:19:23.582Z,3.58
2023-01-09T20:21:52.555Z,4.13
2023-01-09T20:24:23.243Z,2.95
2023-01-09T20:26:52.244Z,2.70
2023-01-09T20:29:21.789Z,2.97
2023-01-09T20:31:50.718Z,2.42
2023-01-09T20:34:19.649Z,5.10
2023-01-09T20:36:48.680Z,3.83
2023-01-09T20:39:17.839Z,4.07
2023-01-09T20:41:48.470Z,3.95
2023-01-09T20:44:17.594Z,3.95
2023-01-09T20:46:48.380Z,3.10
2023-01-09T20:49:19.513Z,3.08
2023-01-09T20:51:52.066Z,3.00
2023-01-09T20:54:23.231Z,3.47
2023-01-09T20:56:53.832Z,3.53
2023-01-09T20:59:25.071Z,2.80
2023-01-09T21:01:53.931Z,2.90
2023-01-09T21:04:22.858Z,21.52
2023-01-09T21:06:51.748Z,4.70
2023-01-09T21:09:20.879Z,3.58
2023-01-09T21:11:49.793Z,3.00
2023-01-09T21:14:20.576Z,3.28
2023-01-09T21:16:55.023Z,5.18
2023-01-09T21:19:24.798Z,3.28
2023-01-09T21:21:53.842Z,4.03
2023-01-09T21:24:23.082Z,3.70
2023-01-09T21:26:52.064Z,3.10
2023-01-09T21:29:22.458Z,3.28
2023-01-09T21:31:51.683Z,3.25
2023-01-09T21:34:21.195Z,2.60
2023-01-09T21:36:51.488Z,3.30
2023-01-09T21:39:22.420Z,3.50
2023-01-09T21:42:08.944Z,3.67
2023-01-09T21:44:57.149Z,3.17
2023-01-09T21:47:26.203Z,3.75
2023-01-09T21:49:55.082Z,3.25
2023-01-09T21:52:25.791Z,6.03
2023-01-09T21:54:54.924Z,3.40
2023-01-09T21:57:23.804Z,4.30
2023-01-09T21:59:54.172Z,4.70
2023-01-09T22:02:23.160Z,3.67
2023-01-09T22:04:52.129Z,4.38
2023-01-09T22:07:21.300Z,3.85
2023-01-09T22:09:50.306Z,3.35
2023-01-09T22:12:19.275Z,3.75
2023-01-09T22:14:48.708Z,3.85
2023-01-09T22:17:19.252Z,4.63
2023-01-09T22:19:48.273Z,3.50
2023-01-09T22:22:17.188Z,3.72
2023-01-09T22:24:46.137Z,3.88
2023-01-09T22:27:15.087Z,3.78
2023-01-09T22:29:44.137Z,3.78
2023-01-09T22:32:13.179Z,3.85
2023-01-09T22:34:43.398Z,4.28
2023-01-09T22:37:12.368Z,3.92
2023-01-09T22:39:41.355Z,4.82
2023-01-09T22:42:10.257Z,3.80
2023-01-09T22:44:39.137Z,3.85
2023-01-09T22:47:08.099Z,4.22
2023-01-09T22:49:52.021Z,4.53
2023-01-09T22:52:23.936Z,4.32
2023-01-09T22:54:52.888Z,3.70
2023-01-09T22:57:21.653Z,6.03
2023-01-09T22:59:50.528Z,4.22
2023-01-09T23:02:19.527Z,4.22
2023-01-09T23:04:48.874Z,3.95
2023-01-09T23:07:17.755Z,4.05
2023-01-09T23:09:48.108Z,3.72
2023-01-09T23:12:17.107Z,4.70
2023-01-09T23:14:46.184Z,4.22
2023-01-09T23:17:15.364Z,4.55
2023-01-09T23:19:44.288Z,4.15
2023-01-09T23:22:13.709Z,4.50
2023-01-09T23:24:42.724Z,4.05
2023-01-09T23:27:16.097Z,3.90
2023-01-09T23:29:47.811Z,4.65
2023-01-09T23:32:16.913Z,4.55
2023-01-09T23:34:47.550Z,4.35
2023-01-09T23:37:16.746Z,5.25
2023-01-09T23:39:45.714Z,4.70
2023-01-09T23:42:33.189Z,4.30
2023-01-09T23:45:02.144Z,5.85
2023-01-09T23:47:31.238Z,4.20
2023-01-09T23:50:00.223Z,5.28
2023-01-09T23:52:29.174Z,4.85
2023-01-09T23:54:58.233Z,8.52
2023-01-09T23:57:28.712Z,4.65
2023-01-09T23:59:57.703Z,3.83
